Time;durP1;ratioP1;P1;durP2;ratioP2;P2;SDS_P1;SDS_P2;PMS_P1;PMS_P2;Temp;Humidity;BMP_temperature;BMP_pressure;BME280_temperature;BME280_humidity;BME280_pressure;Samples;Min_cycle;Max_cycle;Signal;HPM_P1;HPM_P2
2020/12/14 00:00:33;;;;;;;4.57;1.95;;;7.00;90.70;;;;;;4986385;28;20023;-86
2020/12/14 00:03:03;;;;;;;3.90;2.25;;;7.00;90.70;;;;;;4996625;28;20030;-86
2020/12/14 00:05:32;;;;;;;3.87;2.07;;;7.00;90.70;;;;;;4992621;28;20625;-86
2020/12/14 00:08:06;;;;;;;5.95;2.38;;;7.00;90.70;;;;;;4996046;28;20277;-86
2020/12/14 00:10:47;;;;;;;;;;;;;;;;;;;;;
2020/12/14 00:13:23;;;;;;;5.45;2.35;;;7.00;90.60;;;;;;4998860;28;20040;-85
2020/12/14 00:15:51;;;;;;;4.47;2.13;;;7.00;90.60;;;;;;5005040;28;20026;-88
2020/12/14 00:18:17;;;;;;;6.30;2.00;;;7.00;90.60;;;;;;4997844;28;20030;-91
2020/12/14 00:20:46;;;;;;;5.43;1.90;;;7.00;90.60;;;;;;5015682;28;20026;-86
2020/12/14 00:23:17;;;;;;;5.53;2.42;;;7.00;90.60;;;;;;4994734;28;20045;-86
2020/12/14 00:25:45;;;;;;;6.78;2.20;;;7.00;90.60;;;;;;5008603;28;20037;-86
2020/12/14 00:28:13;;;;;;;5.43;1.63;;;7.00;90.60;;;;;;4992254;28;20065;-85
2020/12/14 00:30:39;;;;;;;5.50;1.90;;;7.00;90.60;;;;;;5020302;28;20030;-86
2020/12/14 00:33:07;;;;;;;5.30;1.98;;;7.10;90.60;;;;;;4989490;28;20136;-86
2020/12/14 00:35:33;;;;;;;5.93;2.13;;;7.10;90.60;;;;;;4975233;28;20034;-87
2020/12/14 00:38:01;;;;;;;5.10;1.90;;;7.00;90.50;;;;;;5011464;28;20375;-86
2020/12/14 00:40:35;;;;;;;7.00;2.25;;;7.10;90.50;;;;;;4995606;28;20033;-87
2020/12/14 00:43:13;;;;;;;;;;;;;;;;;;;;;
2020/12/14 00:45:39;;;;;;;5.10;2.00;;;7.10;90.50;;;;;;4994088;28;20030;-86
2020/12/14 00:48:09;;;;;;;4.53;2.22;;;7.10;90.50;;;;;;4992458;28;20112;-86
2020/12/14 00:50:48;;;;;;;3.47;1.80;;;7.10;90.50;;;;;;4978904;28;20451;-86
2020/12/14 00:53:16;;;;;;;5.22;1.58;;;7.10;90.50;;;;;;4972706;28;20494;-86
2020/12/14 00:55:44;;;;;;;4.88;1.70;;;7.10;90.40;;;;;;4976538;28;20407;-87
2020/12/14 00:58:10;;;;;;;4.82;1.90;;;7.10;90.40;;;;;;5020648;28;20030;-86
2020/12/14 01:00:36;;;;;;;4.88;1.73;;;7.10;90.40;;;;;;4993806;28;20026;-85
2020/12/14 01:03:23;;;;;;;2.90;1.58;;;7.10;90.40;;;;;;4982781;28;20034;-87
2020/12/14 01:05:47;;;;;;;2.95;1.60;;;7.10;90.40;;;;;;4993508;28;20544;-86
2020/12/14 01:08:20;;;;;;;6.25;2.08;;;7.10;90.40;;;;;;4986175;28;20113;-86
2020/12/14 01:10:46;;;;;;;5.15;2.25;;;7.10;90.30;;;;;;5009909;28;20033;-86
2020/12/14 01:13:45;;;;;;;;;;;;;;;;;;;;;
2020/12/14 01:16:13;;;;;;;5.22;2.17;;;7.10;90.30;;;;;;4995266;28;20116;-86
2020/12/14 01:18:39;;;;;;;4.32;1.65;;;7.20;90.30;;;;;;4983478;28;20036;-86
2020/12/14 01:21:32;;;;;;;5.07;2.10;;;7.20;90.30;;;;;;4995254;28;20379;-85
2020/12/14 01:24:08;;;;;;;3.40;1.42;;;7.20;90.30;;;;;;4993325;28;20077;-87
2020/12/14 01:26:39;;;;;;;6.07;1.92;;;7.20;90.30;;;;;;4994008;28;20108;-86
2020/12/14 01:29:10;;;;;;;4.47;2.00;;;7.20;90.30;;;;;;4978552;28;20030;-85
2020/12/14 01:31:36;;;;;;;3.83;1.50;;;7.20;90.20;;;;;;4977023;28;20391;-86
2020/12/14 01:34:12;;;;;;;3.67;1.67;;;7.20;90.20;;;;;;4976217;28;20449;-85
2020/12/14 01:36:38;;;;;;;3.90;1.92;;;7.30;90.30;;;;;;4961786;28;20102;-85
2020/12/14 01:39:11;;;;;;;4.18;1.63;;;7.30;90.20;;;;;;4979606;28;20129;-86
2020/12/14 01:41:44;;;;;;;4.55;2.08;;;7.30;90.20;;;;;;4986962;28;20056;-86
2020/12/14 01:44:10;;;;;;;5.78;1.75;;;7.30;90.20;;;;;;4979874;28;20034;-86
2020/12/14 01:46:41;;;;;;;3.92;2.38;;;7.30;90.20;;;;;;4987613;28;20017;-85
2020/12/14 01:49:16;;;;;;;3.50;1.58;;;7.30;90.20;;;;;;4992983;28;20087;-86
2020/12/14 01:51:50;;;;;;;4.25;1.52;;;7.30;90.20;;;;;;4989559;28;20026;-86
2020/12/14 01:54:34;;;;;;;5.72;1.70;;;7.30;90.20;;;;;;4994888;28;20132;-86
2020/12/14 01:57:04;;;;;;;5.93;2.08;;;7.30;90.20;;;;;;4995155;28;20030;-86
2020/12/14 01:59:32;;;;;;;3.47;1.60;;;7.30;90.10;;;;;;5016076;28;20029;-87
2020/12/14 02:02:03;;;;;;;5.35;2.03;;;7.30;90.10;;;;;;4988420;28;20022;-87
2020/12/14 02:04:29;;;;;;;3.17;1.67;;;7.30;90.10;;;;;;4986742;28;20033;-87
2020/12/14 02:07:04;;;;;;;6.32;1.80;;;7.30;90.10;;;;;;4995650;28;20014;-87
2020/12/14 02:09:35;;;;;;;5.05;2.00;;;7.40;90.10;;;;;;4992409;28;20030;-86
2020/12/14 02:12:13;;;;;;;3.15;1.63;;;7.30;90.10;;;;;;4998846;28;20056;-86
2020/12/14 02:14:42;;;;;;;4.15;1.67;;;7.30;90.10;;;;;;4999196;28;20025;-86
2020/12/14 02:17:20;;;;;;;;;;;;;;;;;;;;;
2020/12/14 02:19:52;;;;;;;4.25;1.90;;;7.40;90.10;;;;;;4996872;28;20499;-87
2020/12/14 02:22:38;;;;;;;3.92;1.95;;;7.40;90.10;;;;;;4995266;28;20038;-86
2020/12/14 02:25:11;;;;;;;5.72;1.90;;;7.40;90.10;;;;;;4977243;28;20132;-84
2020/12/14 02:27:48;;;;;;;7.38;2.00;;;7.40;90.10;;;;;;4983562;28;20041;-84
2020/12/14 02:30:21;;;;;;;5.38;1.98;;;7.40;90.10;;;;;;4990399;28;20544;-86
2020/12/14 02:32:55;;;;;;;7.35;2.05;;;7.40;90.10;;;;;;4978710;28;20027;-86
2020/12/14 02:35:23;;;;;;;3.72;1.70;;;7.40;90.10;;;;;;4979321;28;20026;-86
2020/12/14 02:37:54;;;;;;;4.32;1.95;;;7.40;90.10;;;;;;4970381;28;20062;-86
2020/12/14 02:40:28;;;;;;;3.75;1.42;;;7.40;90.10;;;;;;4960079;28;20077;-87
2020/12/14 02:42:54;;;;;;;6.03;1.77;;;7.50;90.20;;;;;;4978687;28;20038;-87
2020/12/14 02:45:24;;;;;;;4.00;1.60;;;7.50;90.40;;;;;;5011073;28;20048;-86
2020/12/14 02:47:50;;;;;;;5.28;1.70;;;7.50;90.20;;;;;;4984819;28;20027;-86
2020/12/14 02:50:15;;;;;;;3.17;1.60;;;7.50;90.20;;;;;;4973410;28;20030;-88
2020/12/14 02:52:44;;;;;;;3.15;1.45;;;7.50;90.20;;;;;;4978870;28;20029;-86
2020/12/14 02:55:30;;;;;;;2.65;1.58;;;7.50;90.20;;;;;;4979201;28;20027;-86
2020/12/14 02:57:56;;;;;;;4.43;1.70;;;7.50;90.20;;;;;;4971445;28;20563;-86
2020/12/14 03:00:29;;;;;;;6.25;2.03;;;7.50;90.20;;;;;;4978801;28;20109;-86
2020/12/14 03:02:58;;;;;;;3.80;1.80;;;7.50;90.20;;;;;;4972412;28;20035;-87
2020/12/14 03:05:34;;;;;;;4.57;1.92;;;7.50;90.30;;;;;;4967341;28;20018;-87
2020/12/14 03:08:05;;;;;;;8.95;2.90;;;7.50;90.30;;;;;;4974874;28;20490;-87
2020/12/14 03:10:31;;;;;;;3.47;2.08;;;7.50;90.30;;;;;;4998465;28;20026;-86
2020/12/14 03:13:00;;;;;;;5.43;2.17;;;7.50;90.40;;;;;;4965988;28;20027;-87
2020/12/14 03:15:42;;;;;;;3.35;1.88;;;7.50;90.40;;;;;;4994873;28;20030;-87
2020/12/14 03:18:10;;;;;;;6.00;2.10;;;7.50;90.40;;;;;;4962666;28;20034;-86
2020/12/14 03:20:37;;;;;;;3.05;1.73;;;7.50;90.40;;;;;;4965615;28;20366;-91
2020/12/14 03:23:06;;;;;;;4.95;1.98;;;7.50;90.50;;;;;;4968421;28;20440;-86
2020/12/14 03:25:34;;;;;;;4.30;2.13;;;7.50;90.50;;;;;;4995904;28;20124;-86
2020/12/14 03:28:10;;;;;;;3.78;1.75;;;7.50;90.50;;;;;;4956988;28;20031;-87
2020/12/14 03:30:35;;;;;;;3.65;1.67;;;7.50;90.50;;;;;;4991521;28;20023;-91
2020/12/14 03:33:11;;;;;;;5.45;1.70;;;7.50;90.60;;;;;;4958294;28;20493;-87
2020/12/14 03:35:37;;;;;;;2.42;1.73;;;7.50;90.60;;;;;;4962238;28;20099;-91
2020/12/14 03:38:05;;;;;;;2.72;1.63;;;7.50;90.60;;;;;;4985444;28;20027;-86
2020/12/14 03:40:33;;;;;;;4.43;1.88;;;7.50;90.60;;;;;;4965839;28;20030;-86
2020/12/14 03:43:03;;;;;;;3.30;1.70;;;7.50;90.70;;;;;;4962473;28;20031;-84
2020/12/14 03:45:31;;;;;;;3.97;2.15;;;7.50;90.70;;;;;;4995847;28;20030;-85
2020/12/14 03:48:00;;;;;;;5.15;2.10;;;7.50;90.80;;;;;;4957861;28;20027;-84
2020/12/14 03:50:31;;;;;;;6.20;1.90;;;7.50;90.80;;;;;;4965456;28;20515;-84
2020/12/14 03:53:08;;;;;;;4.20;1.85;;;7.60;90.90;;;;;;4943173;28;20038;-87
2020/12/14 03:55:37;;;;;;;3.88;1.67;;;7.50;90.90;;;;;;4952817;28;20039;-87
2020/12/14 03:58:07;;;;;;;4.10;2.25;;;7.60;91.00;;;;;;4972046;28;20018;-87
2020/12/14 04:00:44;;;;;;;;;;;;;;;;;;;;;
2020/12/14 04:03:15;;;;;;;6.32;2.05;;;7.50;91.00;;;;;;4986900;28;20041;-86
2020/12/14 04:05:43;;;;;;;4.93;1.87;;;7.60;91.10;;;;;;4990707;28;20027;-88
2020/12/14 04:08:29;;;;;;;4.78;1.92;;;7.50;91.10;;;;;;4999078;28;20360;-86
2020/12/14 04:11:06;;;;;;;4.57;2.20;;;7.60;91.20;;;;;;4971752;28;20516;-87
2020/12/14 04:13:38;;;;;;;4.10;2.10;;;7.50;91.20;;;;;;4959777;28;20058;-86
2020/12/14 04:16:07;;;;;;;2.80;1.85;;;7.50;91.30;;;;;;5004154;28;20026;-85
2020/12/14 04:18:34;;;;;;;3.38;2.03;;;7.50;91.30;;;;;;4960062;28;20031;-84
2020/12/14 04:21:03;;;;;;;5.13;2.08;;;7.50;91.30;;;;;;4964964;28;20030;-88
2020/12/14 04:23:32;;;;;;;4.18;2.05;;;7.60;91.40;;;;;;4974373;28;20058;-87
2020/12/14 04:26:01;;;;;;;4.72;2.20;;;7.60;91.40;;;;;;4993593;28;20035;-87
2020/12/14 04:28:30;;;;;;;3.35;2.03;;;7.60;91.50;;;;;;4967379;28;20058;-87
2020/12/14 04:33:52;;;;;;;4.68;1.80;;;7.60;91.60;;;;;;4948472;28;20125;-86
2020/12/14 04:36:23;;;;;;;2.55;1.80;;;7.60;91.60;;;;;;4960328;28;20038;-87
2020/12/14 04:39:01;;;;;;;;;;;;;;;;;;;;;
2020/12/14 04:41:33;;;;;;;3.45;2.05;;;7.60;91.60;;;;;;4993743;28;20038;-86
2020/12/14 04:44:02;;;;;;;4.18;2.08;;;7.60;91.60;;;;;;4988941;28;20019;-86
2020/12/14 04:46:32;;;;;;;4.78;2.30;;;7.60;91.70;;;;;;4957589;28;20034;-87
2020/12/14 04:49:07;;;;;;;4.72;2.17;;;7.60;91.70;;;;;;4975737;28;20023;-86
2020/12/14 04:51:37;;;;;;;3.80;1.90;;;7.60;91.70;;;;;;4960943;28;20045;-86
2020/12/14 04:54:09;;;;;;;3.67;1.75;;;7.60;91.70;;;;;;4957753;28;20125;-86
2020/12/14 04:56:53;;;;;;;4.07;1.90;;;7.60;91.80;;;;;;4965637;28;20109;-86
2020/12/14 04:59:24;;;;;;;4.38;1.90;;;7.60;91.80;;;;;;4988974;28;20027;-87
2020/12/14 05:01:50;;;;;;;4.35;2.20;;;7.60;91.80;;;;;;4979387;28;20023;-86
2020/12/14 05:04:21;;;;;;;4.10;1.95;;;7.60;91.90;;;;;;4976472;28;20033;-85
2020/12/14 05:06:56;;;;;;;1.63;1.50;;;7.60;91.90;;;;;;4973403;28;20073;-87
2020/12/14 05:09:27;;;;;;;2.17;1.75;;;7.60;91.90;;;;;;4976426;28;20022;-87
2020/12/14 05:11:58;;;;;;;4.72;1.75;;;7.60;91.90;;;;;;4975825;28;20030;-87
2020/12/14 05:14:26;;;;;;;2.97;1.60;;;7.60;92.00;;;;;;4946132;28;20062;-86
2020/12/14 05:17:03;;;;;;;;;;;;;;;;;;;;;
2020/12/14 05:19:31;;;;;;;3.80;1.98;;;7.70;92.00;;;;;;4981877;28;20041;-87
2020/12/14 05:22:10;;;;;;;;;;;;;;;;;;;;;
2020/12/14 05:24:39;;;;;;;5.10;2.15;;;7.70;92.10;;;;;;4958424;28;20058;-87
2020/12/14 05:27:10;;;;;;;5.30;1.90;;;7.70;92.10;;;;;;4984541;28;20044;-87
2020/12/14 05:29:40;;;;;;;2.53;1.48;;;7.70;92.10;;;;;;4964815;28;20023;-87
2020/12/14 05:32:09;;;;;;;3.58;1.75;;;7.70;92.10;;;;;;4972221;28;20047;-87
2020/12/14 05:34:37;;;;;;;3.95;1.80;;;7.70;92.20;;;;;;4956974;28;20027;-87
2020/12/14 05:37:11;;;;;;;4.57;1.83;;;7.70;92.20;;;;;;4973049;28;20030;-86
2020/12/14 05:39:39;;;;;;;2.20;1.70;;;7.70;92.20;;;;;;4979096;28;20026;-86
2020/12/14 05:42:20;;;;;;;2.70;1.73;;;7.70;92.20;;;;;;5008027;28;20494;-86
2020/12/14 05:44:57;;;;;;;3.03;1.83;;;7.70;92.20;;;;;;4954754;28;20029;-85
2020/12/14 05:47:33;;;;;;;4.78;1.80;;;7.70;92.20;;;;;;4972530;28;20053;-87
2020/12/14 05:50:06;;;;;;;3.67;2.10;;;7.70;92.20;;;;;;4975407;28;20027;-88
2020/12/14 05:52:45;;;;;;;2.78;1.50;;;7.70;92.30;;;;;;4966620;28;20042;-86
2020/12/14 05:55:32;;;;;;;2.17;1.65;;;7.60;92.30;;;;;;4973664;28;20033;-90
2020/12/14 05:58:05;;;;;;;3.70;1.65;;;7.60;92.30;;;;;;4969102;28;20030;-86
2020/12/14 06:01:01;;;;;;;2.75;1.75;;;7.60;92.30;;;;;;4976716;28;20377;-86
2020/12/14 06:03:30;;;;;;;4.05;1.80;;;7.60;92.30;;;;;;4976310;28;20038;-86
2020/12/14 06:26:04;;;;;;;4.28;1.92;;;7.60;92.40;;;;;;5022695;28;20418;-86
2020/12/14 06:35:41;;;;;;;2.60;1.83;;;7.60;92.40;;;;;;5016886;28;20064;-87
2020/12/14 06:38:06;;;;;;;2.83;1.90;;;7.60;92.40;;;;;;4997349;28;20037;-87
2020/12/14 06:40:58;;;;;;;2.60;1.85;;;7.60;92.40;;;;;;4982487;28;20081;-87
2020/12/14 06:43:32;;;;;;;2.90;1.90;;;7.60;92.50;;;;;;4999079;28;20033;-88
2020/12/14 06:45:58;;;;;;;3.70;1.80;;;7.60;92.50;;;;;;4999059;28;20107;-87
2020/12/14 06:52:03;;;;;;;3.83;1.98;;;7.70;92.60;;;;;;5016615;28;20037;-88
2020/12/14 07:11:34;;;;;;;4.70;2.35;;;7.70;92.70;;;;;;5016441;28;20479;-86
2020/12/14 07:31:39;;;;;;;3.78;2.25;;;7.70;92.80;;;;;;5016496;28;20103;-89
2020/12/14 07:34:34;;;;;;;4.95;2.20;;;7.70;92.80;;;;;;4983248;28;20038;-89
2020/12/14 07:37:07;;;;;;;3.72;2.80;;;7.70;92.80;;;;;;5016996;28;20021;-88
2020/12/14 07:39:50;;;;;;;2.80;2.13;;;7.70;92.80;;;;;;4986597;28;20498;-87
2020/12/14 07:42:56;;;;;;;4.00;2.45;;;7.70;92.90;;;;;;4997802;28;20022;-87
2020/12/14 08:46:09;;;;;;;;;;;;;;;;;;;;;
2020/12/14 08:59:01;;;;;;;4.22;3.00;;;8.30;93.40;;;;;;4973466;28;20039;-87
2020/12/14 09:01:31;;;;;;;4.85;2.70;;;8.30;93.40;;;;;;4955490;28;20026;-87
2020/12/14 09:04:02;;;;;;;3.28;2.92;;;8.40;93.40;;;;;;4974375;28;20093;-88
2020/12/14 09:38:26;;;;;;;2.60;2.40;;;8.70;93.70;;;;;;4994559;28;20026;-88
2020/12/14 09:41:19;;;;;;;3.03;2.70;;;8.80;93.70;;;;;;4979157;28;20143;-88
2020/12/14 09:47:17;;;;;;;;;;;;;;;;;;;;;
2020/12/14 09:49:54;;;;;;;;;;;8.90;93.80;;;;;;4947702;29;20090;-88
2020/12/14 09:56:11;;;;;;;2.80;2.15;;;9.00;93.80;;;;;;4936851;29;20050;-89
2020/12/14 10:05:59;;;;;;;2.22;2.03;;;9.10;93.80;;;;;;4941273;28;20075;-89
2020/12/14 10:28:50;;;;;;;;;;;;;;;;;;;;;
2020/12/14 10:31:45;;;;;;;1.92;1.77;;;9.40;94.00;;;;;;4992123;28;20055;-88
2020/12/14 10:34:42;;;;;;;2.20;1.92;;;9.40;94.00;;;;;;4989556;28;20133;-88
2020/12/14 10:58:13;;;;;;;3.40;2.33;;;9.70;94.00;;;;;;4889715;29;20133;-88
2020/12/14 11:04:22;;;;;;;;;;;;;;;;;;;;;
2020/12/14 11:07:46;;;;;;;;;;;;;;;;;;;;;
2020/12/14 11:30:29;;;;;;;;;;;9.90;94.10;;;;;;4906991;29;20398;-88
2020/12/14 11:33:22;;;;;;;2.53;2.10;;;9.90;94.00;;;;;;4906690;29;19997;-88
2020/12/14 11:36:31;;;;;;;;;;;;;;;;;;;;;
2020/12/14 11:42:47;;;;;;;3.17;2.53;;;9.90;94.10;;;;;;4901089;29;20050;-88
2020/12/14 11:45:27;;;;;;;8.13;5.80;;;9.90;94.10;;;;;;4892885;29;20076;-88
2020/12/14 11:52:08;;;;;;;;;;;;;;;;;;;;;
2020/12/14 11:55:09;;;;;;;;;;;;;;;;;;;;;
2020/12/14 11:58:26;;;;;;;;;;;;;;;;;;;;;
2020/12/14 12:04:06;;;;;;;3.75;2.38;;;10.00;94.00;;;;;;4910557;29;20066;-87
2020/12/14 12:06:47;;;;;;;;;;;;;;;;;;;;;
2020/12/14 12:09:34;;;;;;;3.03;2.75;;;10.00;94.00;;;;;;4937244;28;20102;-87
2020/12/14 12:18:26;;;;;;;2.67;2.35;;;10.00;94.00;;;;;;4981310;28;20030;-86
2020/12/14 12:21:25;;;;;;;2.58;2.38;;;10.00;94.10;;;;;;4970371;28;20027;-87
2020/12/14 12:24:21;;;;;;;;;;;;;;;;;;;;;
2020/12/14 12:26:58;;;;;;;4.88;2.40;;;10.10;94.00;;;;;;5001331;28;20117;-87
2020/12/14 12:29:36;;;;;;;3.03;2.72;;;10.00;94.00;;;;;;4980812;28;20022;-87
2020/12/14 12:35:35;;;;;;;3.08;2.45;;;10.10;94.00;;;;;;4939732;29;20126;-88
2020/12/14 12:39:17;;;;;;;;;;;;;;;;;;;;;
2020/12/14 12:41:58;;;;;;;3.47;2.50;;;10.10;94.00;;;;;;4930340;29;20038;-88
2020/12/14 12:44:50;;;;;;;2.80;2.55;;;10.20;94.00;;;;;;4968578;28;20503;-88
2020/12/14 12:48:14;;;;;;;3.70;2.95;;;10.20;94.00;;;;;;4966660;28;20030;-87
2020/12/14 13:04:34;;;;;;;4.35;3.00;;;10.30;93.80;;;;;;4938981;29;20034;-87
2020/12/14 13:07:48;;;;;;;5.28;2.88;;;10.40;93.80;;;;;;4898741;29;20028;-88
2020/12/14 13:10:30;;;;;;;4.60;2.97;;;10.40;93.80;;;;;;4957565;28;20030;-86
2020/12/14 13:13:41;;;;;;;3.78;2.92;;;10.40;93.70;;;;;;4983323;28;20034;-86
2020/12/14 13:16:26;;;;;;;3.13;2.50;;;10.40;93.70;;;;;;4984980;28;20054;-88
2020/12/14 13:19:15;;;;;;;2.88;2.25;;;10.40;93.70;;;;;;4967324;28;20026;-89
2020/12/14 13:25:11;;;;;;;;;;;;;;;;;;;;;
2020/12/14 13:27:50;;;;;;;5.13;2.90;;;10.50;93.70;;;;;;4962193;28;20041;-88
2020/12/14 13:30:46;;;;;;;3.30;2.42;;;10.50;93.70;;;;;;4973696;28;20499;-87
2020/12/14 13:34:11;;;;;;;;;;;;;;;;;;;;;
2020/12/14 13:37:06;;;;;;;;;;;;;;;;;;;;;
2020/12/14 13:40:08;;;;;;;;;;;;;;;;;;;;;
2020/12/14 13:43:05;;;;;;;;;;;;;;;;;;;;;
2020/12/14 13:46:11;;;;;;;;;;;;;;;;;;;;;
2020/12/14 13:49:26;;;;;;;;;;;;;;;;;;;;;
2020/12/14 13:52:26;;;;;;;;;;;;;;;;;;;;;
2020/12/14 13:55:29;;;;;;;;;;;;;;;;;;;;;
2020/12/14 13:58:15;;;;;;;;;;;;;;;;;;;;;
2020/12/14 14:04:59;;;;;;;3.22;2.40;;;10.50;93.40;;;;;;4979930;28;20030;-87
2020/12/14 14:07:55;;;;;;;;;;;;;;;;;;;;;
2020/12/14 14:14:06;;;;;;;;;;;;;;;;;;;;;
2020/12/14 14:17:41;;;;;;;;;;;;;;;;;;;;;
2020/12/14 14:20:09;;;;;;;5.30;3.42;;;10.50;93.40;;;;;;5011672;28;20069;-88
2020/12/14 14:23:16;;;;;;;;;;;;;;;;;;;;;
2020/12/14 14:32:09;;;;;;;4.03;3.50;;;10.40;93.30;;;;;;4979123;28;20037;-88
2020/12/14 14:35:01;;;;;;;4.70;3.47;;;10.40;93.30;;;;;;4989144;28;20100;-88
2020/12/14 14:38:02;;;;;;;;;;;;;;;;;;;;;
2020/12/14 14:50:30;;;;;;;;;;;;;;;;;;;;;
2020/12/14 14:53:12;;;;;;;;;;;;;;;;;;;;;
2020/12/14 14:58:58;;;;;;;;;;;;;;;;;;;;;
2020/12/14 15:01:45;;;;;;;3.90;3.50;;;10.30;93.20;;;;;;4999916;28;20034;-88
2020/12/14 15:04:24;;;;;;;8.30;4.95;;;10.30;93.20;;;;;;5015454;28;20546;-90
2020/12/14 15:07:17;;;;;;;11.88;7.43;;;10.30;93.20;;;;;;5015645;28;20076;-88
2020/12/14 15:09:53;;;;;;;7.25;5.32;;;10.30;93.20;;;;;;5015212;28;20025;-88
2020/12/14 15:12:40;;;;;;;;;;;;;;;;;;;;;
2020/12/14 15:18:29;;;;;;;5.38;4.05;;;10.30;93.10;;;;;;4978419;28;20085;-87
2020/12/14 15:21:13;;;;;;;;;;;;;;;;;;;;;
2020/12/14 15:27:00;;;;;;;4.82;3.90;;;10.30;93.10;;;;;;5007472;28;20042;-89
2020/12/14 15:29:59;;;;;;;4.47;3.50;;;10.30;93.10;;;;;;4997065;28;20034;-90
2020/12/14 15:32:47;;;;;;;4.32;3.13;;;10.30;93.10;;;;;;4996124;28;20230;-88
2020/12/14 15:35:40;;;;;;;4.50;3.38;;;10.30;93.10;;;;;;5003891;28;20597;-90
2020/12/14 15:38:39;;;;;;;3.90;3.13;;;10.30;93.20;;;;;;5013148;28;20034;-89
2020/12/14 15:44:35;;;;;;;;;;;;;;;;;;;;;
2020/12/14 15:50:48;;;;;;;3.97;2.80;;;10.20;93.10;;;;;;4979821;28;20488;-89
2020/12/14 16:03:33;;;;;;;3.88;3.08;;;10.20;93.10;;;;;;4896958;29;20486;-90
2020/12/14 16:10:05;;;;;;;;;;;;;;;;;;;;;
2020/12/14 16:13:21;;;;;;;6.53;4.80;;;10.10;93.10;;;;;;4981102;28;20036;-91
2020/12/14 16:19:34;;;;;;;;;;;;;;;;;;;;;
2020/12/14 16:22:23;;;;;;;4.93;2.88;;;10.10;93.00;;;;;;4965022;28;20026;-87
2020/12/14 16:28:26;;;;;;;5.07;3.05;;;10.20;93.10;;;;;;4990188;28;20420;-88
2020/12/14 16:30:57;;;;;;;4.97;2.78;;;10.10;93.00;;;;;;4952570;28;20456;-87
2020/12/14 16:33:51;;;;;;;5.00;2.85;;;10.10;93.00;;;;;;4974581;28;20042;-87
2020/12/14 16:40:09;;;;;;;3.83;2.88;;;10.20;93.00;;;;;;4996535;28;20069;-87
2020/12/14 16:42:51;;;;;;;;;;;;;;;;;;;;;
2020/12/14 16:49:11;;;;;;;;;;;;;;;;;;;;;
2020/12/14 16:55:56;;;;;;;;;;;;;;;;;;;;;
2020/12/14 16:59:11;;;;;;;4.75;3.47;;;10.10;92.90;;;;;;4934484;29;20036;-86
2020/12/14 17:05:07;;;;;;;3.88;2.50;;;10.10;93.00;;;;;;4900641;29;20109;-88
2020/12/14 17:07:58;;;;;;;3.88;2.47;;;10.10;92.90;;;;;;4908146;29;20106;-88
2020/12/14 17:11:06;;;;;;;;;;;;;;;;;;;;;
2020/12/14 17:33:48;;;;;;;5.05;3.95;;;10.00;92.80;;;;;;4824943;29;20042;-88
2020/12/14 17:40:47;;;;;;;6.35;4.25;;;10.00;92.80;;;;;;4806727;29;20126;-88
2020/12/14 17:48:00;;;;;;;4.63;4.07;;;9.90;92.80;;;;;;4819674;29;20547;-90
2020/12/14 17:55:27;;;;;;;;;;;;;;;;;;;;;
2020/12/14 18:04:59;;;;;;;5.88;4.15;;;9.70;92.80;;;;;;4823335;29;20057;-87
2020/12/14 18:08:35;;;;;;;;;;;;;;;;;;;;;
2020/12/14 18:11:04;;;;;;;6.20;3.50;;;9.70;92.80;;;;;;4859396;29;20033;-89
2020/12/14 18:14:20;;;;;;;;;;;;;;;;;;;;;
2020/12/14 18:17:09;;;;;;;6.22;3.50;;;9.60;92.80;;;;;;4911436;29;20032;-88
2020/12/14 18:26:18;;;;;;;;;;;;;;;;;;;;;
2020/12/14 19:48:16;;;;;;;8.73;5.25;;;9.20;93.20;;;;;;4995989;28;20035;-87
2020/12/14 21:25:16;;;;;;;7.60;5.40;;;9.30;93.70;;;;;;4983373;28;20097;-89
2020/12/14 21:27:52;;;;;;;7.75;4.95;;;9.30;93.80;;;;;;4987430;28;20022;-87
2020/12/14 21:30:43;;;;;;;6.32;5.38;;;9.30;93.80;;;;;;4980817;28;20026;-87
2020/12/14 21:33:17;;;;;;;8.00;5.78;;;9.40;93.80;;;;;;4996301;28;20038;-89
2020/12/14 21:36:10;;;;;;;5.60;5.05;;;9.30;93.80;;;;;;5012289;28;20072;-89
2020/12/14 21:38:54;;;;;;;8.10;5.55;;;9.30;93.80;;;;;;4997864;28;20044;-88
2020/12/14 21:41:34;;;;;;;10.93;5.70;;;9.30;93.80;;;;;;4986736;28;20077;-89
2020/12/14 21:44:05;;;;;;;7.78;5.50;;;9.40;93.90;;;;;;4975362;28;20047;-89
2020/12/14 21:46:45;;;;;;;;;;;;;;;;;;;;;
2020/12/14 21:49:35;;;;;;;7.65;6.03;;;9.40;93.90;;;;;;5007583;28;20391;-90
2020/12/14 21:52:11;;;;;;;6.45;5.55;;;9.40;93.90;;;;;;4984401;28;20092;-88
2020/12/14 21:54:42;;;;;;;9.05;5.93;;;9.40;93.90;;;;;;4978048;28;20037;-90
2020/12/14 21:57:30;;;;;;;7.93;5.35;;;9.40;93.90;;;;;;4973316;28;20043;-88
2020/12/14 22:00:23;;;;;;;6.85;5.55;;;9.40;93.90;;;;;;4960310;28;20030;-88
2020/12/14 22:03:01;;;;;;;7.13;6.10;;;9.40;93.90;;;;;;4969167;28;20039;-88
2020/12/14 22:05:42;;;;;;;;;;;;;;;;;;;;;
2020/12/14 22:09:07;;;;;;;6.78;5.82;;;9.40;93.80;;;;;;5006504;28;20026;-89
2020/12/14 22:11:50;;;;;;;10.00;5.97;;;9.40;93.90;;;;;;4988193;28;20491;-90
2020/12/14 22:17:22;;;;;;;9.15;5.95;;;9.40;93.80;;;;;;4993916;28;19913;-89
2020/12/14 22:20:15;;;;;;;11.23;6.82;;;9.30;93.80;;;;;;4988503;28;20030;-89
2020/12/14 22:23:13;;;;;;;;;;;;;;;;;;;;;
2020/12/14 22:26:12;;;;;;;8.48;5.82;;;9.40;93.90;;;;;;4994915;28;20038;-88
2020/12/14 22:28:54;;;;;;;8.73;5.95;;;9.40;93.90;;;;;;5007156;28;20575;-89
2020/12/14 22:31:43;;;;;;;8.50;5.43;;;9.30;93.80;;;;;;5010313;28;20052;-88
2020/12/14 22:34:14;;;;;;;8.15;5.25;;;9.30;93.80;;;;;;4980967;28;20046;-88
2020/12/14 22:37:06;;;;;;;9.52;4.80;;;9.30;93.80;;;;;;4973141;28;20040;-89
2020/12/14 22:40:01;;;;;;;7.22;4.70;;;9.30;93.80;;;;;;4993721;28;20093;-89
2020/12/14 22:42:47;;;;;;;8.10;5.30;;;9.30;93.80;;;;;;4978223;28;20431;-87
2020/12/14 22:45:20;;;;;;;6.57;4.70;;;9.30;93.80;;;;;;4994035;28;20034;-88
2020/12/14 22:48:06;;;;;;;;;;;;;;;;;;;;;
2020/12/14 22:50:41;;;;;;;6.88;4.70;;;9.20;93.80;;;;;;5001620;28;20459;-88
2020/12/14 22:53:34;;;;;;;;;;;;;;;;;;;;;
2020/12/14 22:56:28;;;;;;;8.32;5.00;;;9.20;93.80;;;;;;5019827;28;20046;-89
2020/12/14 22:59:04;;;;;;;;;;;;;;;;;;;;;
2020/12/14 23:01:58;;;;;;;;;;;;;;;;;;;;;
2020/12/14 23:04:58;;;;;;;7.90;4.90;;;9.10;93.80;;;;;;4987270;28;20042;-88
2020/12/14 23:07:32;;;;;;;9.57;5.35;;;9.10;93.70;;;;;;4971651;28;20045;-90
2020/12/14 23:10:31;;;;;;;;;;;;;;;;;;;;;
2020/12/14 23:13:14;;;;;;;6.78;4.57;;;9.10;93.70;;;;;;4998638;28;20048;-88
2020/12/14 23:16:01;;;;;;;6.85;4.47;;;9.10;93.70;;;;;;4982545;28;20182;-88
2020/12/14 23:18:57;;;;;;;7.40;4.53;;;9.10;93.70;;;;;;5004372;28;20034;-89
2020/12/14 23:27:41;;;;;;;5.85;4.10;;;9.00;93.70;;;;;;5001960;28;20042;-93
2020/12/14 23:30:35;;;;;;;6.25;4.00;;;9.00;93.70;;;;;;4987956;28;20379;-89
2020/12/14 23:33:20;;;;;;;6.35;4.28;;;9.00;93.70;;;;;;4984671;28;20042;-86
2020/12/14 23:36:15;;;;;;;5.47;3.90;;;9.00;93.70;;;;;;4972062;28;20177;-88
2020/12/14 23:38:48;;;;;;;6.78;4.25;;;9.00;93.70;;;;;;5004576;28;20022;-87
2020/12/14 23:41:20;;;;;;;5.70;4.03;;;9.00;93.70;;;;;;5006277;28;20035;-87
2020/12/14 23:44:03;;;;;;;6.97;4.38;;;9.00;93.70;;;;;;4998206;28;20029;-86
2020/12/14 23:46:34;;;;;;;9.15;4.70;;;8.90;93.60;;;;;;4963573;28;20029;-86
2020/12/14 23:49:03;;;;;;;6.75;4.35;;;8.90;93.60;;;;;;4995482;28;20058;-86
2020/12/14 23:51:31;;;;;;;7.35;4.30;;;8.90;93.60;;;;;;4995887;28;20510;-87
2020/12/14 23:54:05;;;;;;;9.38;4.60;;;8.90;93.60;;;;;;4995202;28;20112;-86
2020/12/14 23:56:36;;;;;;;4.85;4.00;;;8.90;93.60;;;;;;4997324;28;20022;-86
2020/12/14 23:59:07;;;;;;;7.72;4.25;;;8.90;93.60;;;;;;4995525;28;20018;-87
